Time;durP1;ratioP1;P1;durP2;ratioP2;P2;SDS_P1;SDS_P2;PMS_P1;PMS_P2;Temp;Humidity;BMP_temperature;BMP_pressure;BME280_temperature;BME280_humidity;BME280_pressure;Samples;Min_cycle;Max_cycle;Signal;HPM_P1;HPM_P2
2022/03/23 00:01:24;;;;;;;66.70;41.75;;;8.10;99.90;;;;;;5064567;28;20063;-91
2022/03/23 00:03:50;;;;;;;64.90;43.03;;;8.00;99.90;;;;;;5064526;28;20115;-91
2022/03/23 00:06:17;;;;;;;64.20;41.55;;;8.00;99.90;;;;;;5080936;28;20087;-91
2022/03/23 00:08:44;;;;;;;62.70;41.70;;;9.80;99.90;;;;;;5064133;28;20463;-90
2022/03/23 00:11:10;;;;;;;72.55;44.63;;;8.20;99.90;;;;;;5045616;28;20044;-91
2022/03/23 00:13:36;;;;;;;65.65;43.92;;;8.00;99.90;;;;;;5062569;28;20064;-92
2022/03/23 00:16:03;;;;;;;63.38;42.92;;;8.20;99.90;;;;;;5064034;28;20395;-91
2022/03/23 00:18:29;;;;;;;60.15;39.85;;;8.00;99.90;;;;;;5063415;28;20495;-91
2022/03/23 00:20:55;;;;;;;68.88;44.45;;;10.10;99.90;;;;;;5063401;28;20134;-91
2022/03/23 00:23:21;;;;;;;79.22;47.83;;;8.70;99.90;;;;;;5047004;28;20501;-91
2022/03/23 00:25:47;;;;;;;69.20;43.83;;;7.80;99.90;;;;;;5063953;28;20430;-91
2022/03/23 00:28:13;;;;;;;65.13;39.70;;;9.80;99.90;;;;;;5047032;28;20154;-91
2022/03/23 00:30:39;;;;;;;60.67;39.10;;;8.80;99.90;;;;;;5063696;28;20089;-91
2022/03/23 00:33:05;;;;;;;73.30;44.08;;;8.00;99.90;;;;;;5063396;28;20079;-91
2022/03/23 00:35:31;;;;;;;64.43;41.00;;;8.20;99.90;;;;;;5046532;28;20134;-91
2022/03/23 00:37:58;;;;;;;67.43;44.00;;;7.60;99.90;;;;;;5046514;28;20036;-91
2022/03/23 00:40:28;;;;;;;69.90;43.85;;;10.00;99.90;;;;;;5061832;28;20044;-91
2022/03/23 00:42:56;;;;;;;67.50;43.60;;;8.00;99.90;;;;;;5062510;28;20039;-90
2022/03/23 00:45:21;;;;;;;64.70;41.95;;;7.90;99.90;;;;;;5062384;28;20048;-88
2022/03/23 00:47:48;;;;;;;65.53;41.75;;;7.40;99.90;;;;;;5078053;28;20044;-91
2022/03/23 00:50:14;;;;;;;67.47;45.03;;;10.00;99.90;;;;;;5062771;28;20040;-92
2022/03/23 00:52:41;;;;;;;66.45;42.58;;;7.30;99.90;;;;;;5062547;28;20485;-92
2022/03/23 00:55:09;;;;;;;69.30;42.35;;;7.50;99.90;;;;;;5062282;28;20075;-92
2022/03/23 00:57:40;;;;;;;73.88;43.28;;;7.30;99.90;;;;;;5045531;28;20122;-92
2022/03/23 01:00:12;;;;;;;75.95;45.63;;;7.30;99.90;;;;;;5079427;28;20052;-92
2022/03/23 01:02:39;;;;;;;67.90;42.70;;;7.40;99.90;;;;;;5078873;28;20123;-92
2022/03/23 01:05:07;;;;;;;67.15;43.97;;;8.20;99.90;;;;;;5062454;28;20052;-92
2022/03/23 01:07:34;;;;;;;65.90;41.60;;;7.50;99.90;;;;;;5062493;28;20051;-92
2022/03/23 01:09:59;;;;;;;63.67;40.95;;;9.20;99.90;;;;;;5062684;28;20446;-93
2022/03/23 01:12:25;;;;;;;63.85;40.85;;;7.20;99.90;;;;;;5045813;28;20044;-92
2022/03/23 01:14:51;;;;;;;60.78;39.55;;;7.20;99.90;;;;;;5046100;28;20083;-93
2022/03/23 01:17:17;;;;;;;64.00;43.38;;;7.50;99.90;;;;;;5046094;28;20503;-92
2022/03/23 01:19:43;;;;;;;63.55;42.20;;;7.30;99.90;;;;;;5062296;28;20047;-91
2022/03/23 01:22:08;;;;;;;64.30;40.55;;;8.10;99.90;;;;;;5045960;28;20063;-91
2022/03/23 01:24:35;;;;;;;67.45;43.70;;;8.20;99.90;;;;;;5027949;28;20048;-89
2022/03/23 01:27:02;;;;;;;61.08;40.38;;;8.00;99.90;;;;;;5061639;28;20055;-91
2022/03/23 01:29:28;;;;;;;62.28;38.40;;;8.40;99.90;;;;;;5063117;28;20055;-92
2022/03/23 01:31:54;;;;;;;57.55;36.80;;;7.20;99.90;;;;;;5046289;28;20036;-92
2022/03/23 01:34:19;;;;;;;62.30;38.30;;;7.10;99.90;;;;;;5061366;28;20407;-92
2022/03/23 01:36:45;;;;;;;58.80;37.60;;;9.10;99.90;;;;;;5062609;28;20047;-92
2022/03/23 01:39:12;;;;;;;62.92;40.25;;;6.90;99.90;;;;;;5061952;28;20044;-91
2022/03/23 01:41:39;;;;;;;61.20;39.38;;;6.80;99.90;;;;;;5062191;28;20048;-92
2022/03/23 01:44:19;;;;;;;68.05;43.58;;;7.50;99.90;;;;;;5062305;28;20048;-92
2022/03/23 01:47:02;;;;;;;68.53;44.40;;;6.80;99.90;;;;;;5062673;28;20088;-92
2022/03/23 01:49:28;;;;;;;70.70;42.08;;;6.80;99.90;;;;;;5062381;28;20036;-92
2022/03/23 01:51:54;;;;;;;75.30;46.15;;;7.10;99.90;;;;;;5045365;28;20617;-92
2022/03/23 01:54:20;;;;;;;71.93;44.47;;;6.60;99.90;;;;;;5046003;28;20059;-92
2022/03/23 01:56:46;;;;;;;63.90;42.47;;;9.00;99.90;;;;;;5062671;28;20281;-92
2022/03/23 01:59:12;;;;;;;67.88;42.28;;;8.10;99.90;;;;;;5062458;28;20044;-93
2022/03/23 02:01:38;;;;;;;65.30;42.15;;;8.20;99.90;;;;;;5062161;28;20055;-92
2022/03/23 02:04:06;;;;;;;62.42;41.28;;;8.90;99.90;;;;;;5079073;28;20047;-91
2022/03/23 02:06:32;;;;;;;69.45;42.80;;;6.60;99.90;;;;;;5045026;28;20040;-89
2022/03/23 02:08:58;;;;;;;70.18;44.03;;;6.80;99.90;;;;;;5060760;28;20684;-92
2022/03/23 02:11:24;;;;;;;65.80;41.83;;;8.20;99.90;;;;;;5078746;28;20071;-92
2022/03/23 02:13:53;;;;;;;68.25;41.63;;;7.70;99.90;;;;;;5057572;28;20056;-92
2022/03/23 02:16:19;;;;;;;64.35;41.10;;;6.80;99.90;;;;;;5057603;28;20118;-92
2022/03/23 02:18:45;;;;;;;71.82;42.63;;;5.50;99.90;;;;;;5058241;28;20214;-92
2022/03/23 02:21:14;;;;;;;61.13;41.03;;;6.40;99.90;;;;;;5058482;28;20495;-93
2022/03/23 02:23:40;;;;;;;67.40;43.72;;;8.40;99.90;;;;;;5058976;28;20048;-92
2022/03/23 02:26:06;;;;;;;70.18;43.53;;;8.10;99.90;;;;;;5057949;28;20049;-93
2022/03/23 02:28:32;;;;;;;67.28;41.80;;;6.30;99.90;;;;;;5057954;28;20053;-93
2022/03/23 02:30:58;;;;;;;68.65;45.20;;;8.20;99.90;;;;;;5058343;28;20047;-92
2022/03/23 02:33:24;;;;;;;75.32;43.40;;;7.20;99.90;;;;;;5058819;28;20048;-92
2022/03/23 02:35:50;;;;;;;66.28;42.15;;;8.60;99.90;;;;;;5058424;28;20102;-92
2022/03/23 02:38:17;;;;;;;77.63;45.80;;;7.00;99.90;;;;;;5057743;28;20048;-93
2022/03/23 02:40:46;;;;;;;66.57;41.55;;;7.60;99.90;;;;;;5041709;28;20474;-89
2022/03/23 02:43:13;;;;;;;75.50;44.95;;;8.60;99.90;;;;;;5057077;28;20036;-90
2022/03/23 02:45:39;;;;;;;71.60;46.03;;;7.50;99.90;;;;;;5056872;28;20148;-92
2022/03/23 02:48:06;;;;;;;69.32;44.95;;;6.10;99.90;;;;;;5057425;28;20144;-92
2022/03/23 02:50:33;;;;;;;70.53;43.53;;;7.90;99.90;;;;;;5041631;28;20137;-92
2022/03/23 03:04:29;;;;;;;70.88;44.92;;;6.00;99.90;;;;;;5037824;28;20527;-92
2022/03/23 03:06:57;;;;;;;76.63;47.50;;;6.10;99.90;;;;;;5051615;28;20103;-89
2022/03/23 03:09:23;;;;;;;70.35;45.63;;;6.10;99.90;;;;;;5067558;28;20049;-91
2022/03/23 03:11:49;;;;;;;73.00;45.92;;;8.90;99.90;;;;;;5065821;28;20052;-91
2022/03/23 03:14:16;;;;;;;79.22;47.53;;;6.70;99.90;;;;;;5066302;28;20059;-92
2022/03/23 03:16:42;;;;;;;78.03;46.05;;;6.20;99.90;;;;;;5067228;28;20083;-92
2022/03/23 03:19:10;;;;;;;77.60;46.17;;;8.60;99.90;;;;;;5048557;28;20479;-92
2022/03/23 03:21:36;;;;;;;73.60;43.28;;;7.80;99.90;;;;;;5065350;28;20049;-92
2022/03/23 03:24:02;;;;;;;65.57;43.38;;;6.00;99.90;;;;;;5052043;28;20198;-91
2022/03/23 03:26:31;;;;;;;79.82;48.08;;;6.10;99.90;;;;;;5069393;28;20041;-91
2022/03/23 03:28:58;;;;;;;72.05;45.65;;;6.00;99.90;;;;;;5085317;28;20048;-91
2022/03/23 03:31:24;;;;;;;64.13;41.47;;;6.70;99.90;;;;;;5069470;28;20052;-92
2022/03/23 03:33:50;;;;;;;72.00;44.67;;;6.30;99.90;;;;;;5050730;28;20473;-92
2022/03/23 03:36:16;;;;;;;71.53;44.03;;;5.90;99.90;;;;;;5080923;28;20132;-93
2022/03/23 03:38:44;;;;;;;67.32;43.55;;;7.30;99.90;;;;;;5080151;28;20092;-92
2022/03/23 03:41:10;;;;;;;71.97;43.63;;;6.30;99.90;;;;;;5061631;28;20062;-92
2022/03/23 03:43:37;;;;;;;63.15;42.03;;;6.90;99.90;;;;;;5060998;28;20074;-91
2022/03/23 03:46:06;;;;;;;69.32;44.00;;;6.40;99.90;;;;;;5060656;28;20044;-91
2022/03/23 03:48:32;;;;;;;71.85;43.75;;;5.80;99.90;;;;;;5060229;28;20106;-92
2022/03/23 03:50:59;;;;;;;75.57;46.30;;;5.90;99.90;;;;;;5061625;28;20117;-92
2022/03/23 03:53:25;;;;;;;73.28;46.05;;;5.70;99.90;;;;;;5061365;28;20052;-92
2022/03/23 03:55:50;;;;;;;75.05;47.78;;;7.40;99.90;;;;;;5060359;28;20053;-91
2022/03/23 03:58:17;;;;;;;80.32;51.33;;;6.10;99.90;;;;;;5061192;28;20052;-91
2022/03/23 04:00:43;;;;;;;74.63;46.15;;;7.10;99.90;;;;;;5060594;28;20064;-92
2022/03/23 04:03:09;;;;;;;65.00;42.35;;;7.10;99.90;;;;;;5061091;28;20051;-92
2022/03/23 04:05:35;;;;;;;79.93;47.05;;;7.30;99.90;;;;;;5044066;28;20547;-92
2022/03/23 04:08:01;;;;;;;66.95;44.20;;;8.10;99.90;;;;;;5060858;28;20383;-92
2022/03/23 04:10:27;;;;;;;66.95;42.13;;;5.80;99.90;;;;;;5077392;28;20087;-92
2022/03/23 04:12:53;;;;;;;67.57;43.17;;;5.50;99.90;;;;;;5080284;28;20044;-92
2022/03/23 04:15:20;;;;;;;80.57;47.10;;;7.70;99.90;;;;;;5062857;28;20146;-92
2022/03/23 04:17:47;;;;;;;68.63;44.80;;;4.90;99.90;;;;;;5064194;28;20043;-92
2022/03/23 04:20:13;;;;;;;79.13;48.53;;;6.20;99.90;;;;;;5063412;28;20044;-89
2022/03/23 04:22:39;;;;;;;74.43;45.50;;;5.40;99.90;;;;;;5062164;28;20153;-92
2022/03/23 04:25:10;;;;;;;74.30;46.38;;;5.60;99.90;;;;;;5063568;28;20047;-92
2022/03/23 04:27:47;;;;;;;71.25;43.78;;;4.50;99.90;;;;;;5080946;28;20475;-90
2022/03/23 04:30:14;;;;;;;68.80;42.30;;;5.80;99.90;;;;;;5063721;28;20082;-91
2022/03/23 04:32:40;;;;;;;70.75;43.47;;;8.00;99.90;;;;;;5063335;28;20105;-91
2022/03/23 04:35:08;;;;;;;78.68;48.83;;;5.50;99.90;;;;;;5078343;28;20055;-92
2022/03/23 04:37:34;;;;;;;72.75;44.30;;;5.70;99.90;;;;;;5079061;28;20526;-92
2022/03/23 04:40:00;;;;;;;70.47;44.25;;;5.50;99.90;;;;;;5047105;28;20040;-91
2022/03/23 04:42:26;;;;;;;62.63;41.13;;;7.10;99.90;;;;;;5047112;28;20449;-91
2022/03/23 04:44:52;;;;;;;60.65;37.42;;;5.30;99.90;;;;;;5080438;28;20048;-91
2022/03/23 04:47:17;;;;;;;66.25;42.00;;;7.60;99.90;;;;;;5063711;28;20048;-91
2022/03/23 04:49:44;;;;;;;75.22;45.00;;;6.70;99.90;;;;;;5047142;28;20463;-91
2022/03/23 04:52:12;;;;;;;75.28;46.95;;;6.20;99.90;;;;;;5030629;28;20051;-91
2022/03/23 04:54:38;;;;;;;72.47;44.42;;;5.20;99.90;;;;;;5080291;28;20052;-91
2022/03/23 04:57:04;;;;;;;73.38;45.72;;;5.30;99.90;;;;;;5047068;28;20048;-91
2022/03/23 04:59:30;;;;;;;74.95;45.38;;;5.50;99.90;;;;;;5045968;28;20150;-87
2022/03/23 05:01:55;;;;;;;73.03;45.95;;;7.80;99.90;;;;;;5061452;28;20044;-91
2022/03/23 05:04:21;;;;;;;74.68;45.67;;;5.40;99.90;;;;;;5063074;28;20062;-92
2022/03/23 05:06:47;;;;;;;67.40;44.30;;;7.30;99.90;;;;;;5063028;28;20131;-92
2022/03/23 05:09:13;;;;;;;75.63;45.50;;;5.20;99.90;;;;;;5045726;28;20440;-91
2022/03/23 05:11:39;;;;;;;72.75;45.95;;;5.10;99.90;;;;;;5045887;28;20040;-91
2022/03/23 05:14:05;;;;;;;72.85;45.15;;;7.50;99.90;;;;;;5046166;28;20151;-91
2022/03/23 05:16:30;;;;;;;63.78;42.15;;;5.40;99.90;;;;;;5063268;28;20047;-91
2022/03/23 05:18:56;;;;;;;71.00;45.30;;;5.00;99.90;;;;;;5062553;28;20456;-91
2022/03/23 05:21:22;;;;;;;76.88;47.25;;;5.00;99.90;;;;;;5046087;28;20040;-91
2022/03/23 05:23:47;;;;;;;71.75;45.85;;;7.20;99.90;;;;;;5062582;28;20148;-91
2022/03/23 05:26:13;;;;;;;82.30;48.72;;;7.10;99.90;;;;;;5046025;28;20047;-91
2022/03/23 05:28:39;;;;;;;72.13;44.28;;;7.40;99.90;;;;;;5062862;28;20103;-92
2022/03/23 05:31:05;;;;;;;71.65;45.47;;;6.80;99.90;;;;;;5046528;28;20517;-92
2022/03/23 05:33:30;;;;;;;72.35;46.63;;;5.30;99.90;;;;;;5044800;28;20044;-91
2022/03/23 05:35:56;;;;;;;72.80;45.55;;;5.50;99.90;;;;;;5045270;28;20529;-92
2022/03/23 05:38:22;;;;;;;68.43;43.72;;;7.10;99.90;;;;;;5062482;28;20040;-92
2022/03/23 05:40:47;;;;;;;74.25;45.40;;;6.90;99.90;;;;;;5045573;28;20073;-91
2022/03/23 05:43:13;;;;;;;68.18;44.13;;;5.20;99.90;;;;;;5061146;28;20063;-90
2022/03/23 05:45:39;;;;;;;74.95;47.67;;;5.90;99.90;;;;;;5062150;28;20048;-91
2022/03/23 05:48:05;;;;;;;68.88;42.78;;;6.20;99.90;;;;;;5062258;28;20055;-90
2022/03/23 05:50:34;;;;;;;84.57;50.90;;;5.00;99.90;;;;;;5079152;28;20039;-91
2022/03/23 05:53:00;;;;;;;82.03;50.92;;;5.20;99.90;;;;;;5062113;28;20044;-91
2022/03/23 05:55:25;;;;;;;85.32;49.75;;;7.10;99.90;;;;;;5045856;28;20051;-92
2022/03/23 05:57:51;;;;;;;81.60;48.92;;;4.90;99.90;;;;;;5062195;28;20134;-92
2022/03/23 06:00:17;;;;;;;72.85;44.58;;;7.10;99.90;;;;;;5045151;28;20128;-92
2022/03/23 06:02:43;;;;;;;73.97;48.15;;;5.30;99.90;;;;;;5045102;28;20048;-92
2022/03/23 06:05:09;;;;;;;77.85;47.03;;;7.10;99.90;;;;;;5045482;28;20047;-91
2022/03/23 06:07:35;;;;;;;81.07;50.63;;;7.00;99.90;;;;;;5060722;28;20824;-89
2022/03/23 06:10:07;;;;;;;78.25;50.72;;;6.90;99.90;;;;;;5060741;28;20044;-92
2022/03/23 06:12:33;;;;;;;72.15;45.90;;;7.50;99.90;;;;;;5077758;28;20044;-92
2022/03/23 06:14:59;;;;;;;74.07;47.83;;;5.10;99.90;;;;;;5058526;28;20083;-92
2022/03/23 06:17:25;;;;;;;72.25;47.20;;;5.30;99.90;;;;;;5057769;28;20484;-91
2022/03/23 06:19:50;;;;;;;81.80;48.70;;;7.60;99.90;;;;;;5057918;28;20040;-90
2022/03/23 06:22:18;;;;;;;71.38;46.55;;;5.70;99.90;;;;;;5058285;28;20051;-90
2022/03/23 06:24:44;;;;;;;78.88;50.15;;;5.40;99.90;;;;;;5058658;28;20056;-90
2022/03/23 06:27:10;;;;;;;77.88;46.72;;;5.50;99.90;;;;;;5041852;28;20044;-91
2022/03/23 06:29:35;;;;;;;71.40;48.85;;;7.90;99.90;;;;;;5057757;28;20530;-91
2022/03/23 06:32:01;;;;;;;77.00;48.20;;;5.90;99.90;;;;;;5057882;28;20468;-91
2022/03/23 06:34:27;;;;;;;75.30;47.55;;;5.60;99.90;;;;;;5041524;28;20056;-91
2022/03/23 06:36:53;;;;;;;70.90;46.03;;;5.90;99.90;;;;;;5074738;28;20048;-90
2022/03/23 06:39:19;;;;;;;78.07;49.65;;;6.00;99.90;;;;;;5058112;28;20082;-92
2022/03/23 06:41:44;;;;;;;77.10;48.45;;;7.30;99.90;;;;;;5041080;28;20056;-88
2022/03/23 06:44:11;;;;;;;76.95;47.95;;;6.50;99.90;;;;;;5056651;28;20052;-91
2022/03/23 06:46:37;;;;;;;74.82;47.60;;;6.00;99.90;;;;;;5041748;28;20041;-92
2022/03/23 06:49:03;;;;;;;81.95;49.47;;;6.20;99.90;;;;;;5041435;28;20446;-91
2022/03/23 06:51:29;;;;;;;85.90;51.25;;;8.70;99.90;;;;;;5074674;28;20094;-91
2022/03/23 06:53:55;;;;;;;75.85;49.50;;;8.90;99.90;;;;;;5041329;28;20079;-92
2022/03/23 06:56:20;;;;;;;77.07;49.58;;;8.40;99.90;;;;;;5057892;28;20052;-91
2022/03/23 06:58:46;;;;;;;75.65;49.22;;;6.70;99.90;;;;;;5041891;28;20056;-92
2022/03/23 07:01:12;;;;;;;76.05;46.83;;;6.90;99.90;;;;;;5057701;28;20044;-93
2022/03/23 07:03:37;;;;;;;61.97;41.63;;;8.90;99.90;;;;;;5058386;28;20075;-92
2022/03/23 07:06:03;;;;;;;62.60;41.53;;;7.20;99.90;;;;;;5042488;28;20087;-92
2022/03/23 07:11:13;;;;;;;52.92;36.53;;;8.70;99.90;;;;;;5075714;28;20086;-91
2022/03/23 07:13:41;;;;;;;52.08;36.13;;;6.50;99.90;;;;;;5059356;28;20135;-91
2022/03/23 07:16:07;;;;;;;57.13;39.42;;;10.10;99.90;;;;;;5058995;28;20112;-92
2022/03/23 07:18:34;;;;;;;74.78;43.40;;;8.20;99.90;;;;;;5025449;28;20040;-92
2022/03/23 07:21:01;;;;;;;59.95;41.55;;;8.40;99.90;;;;;;5041506;28;20411;-92
2022/03/23 07:23:26;;;;;;;58.28;39.38;;;7.20;99.90;;;;;;5040662;28;20480;-93
2022/03/23 07:25:53;;;;;;;62.63;40.10;;;8.80;99.90;;;;;;5058704;28;20093;-92
2022/03/23 07:28:20;;;;;;;59.03;38.38;;;8.70;99.90;;;;;;5057791;28;20053;-92
2022/03/23 07:30:48;;;;;;;56.60;38.40;;;9.80;99.90;;;;;;5073992;28;20056;-92
2022/03/23 07:33:14;;;;;;;57.33;37.70;;;9.60;99.90;;;;;;5057564;28;20052;-92
2022/03/23 07:35:40;;;;;;;52.70;37.75;;;9.20;99.90;;;;;;5057883;28;20055;-92
2022/03/23 07:38:06;;;;;;;54.70;38.05;;;9.20;99.90;;;;;;5041862;28;20044;-92
2022/03/23 07:40:31;;;;;;;52.40;36.75;;;11.50;99.90;;;;;;5025186;28;20556;-92
2022/03/23 07:42:57;;;;;;;55.50;35.63;;;9.40;99.90;;;;;;5057618;28;20499;-91
2022/03/23 07:45:23;;;;;;;51.00;34.92;;;9.90;99.90;;;;;;5058487;28;20131;-92
2022/03/23 07:47:49;;;;;;;54.13;34.45;;;9.70;99.90;;;;;;5058554;28;20090;-92
2022/03/23 07:50:16;;;;;;;53.05;35.70;;;9.70;99.90;;;;;;5059052;28;20103;-91
2022/03/23 07:52:42;;;;;;;45.42;34.42;;;9.80;99.90;;;;;;5061576;28;20151;-93
2022/03/23 07:55:08;;;;;;;47.25;33.63;;;9.90;99.90;;;;;;5061333;28;20088;-90
2022/03/23 07:57:34;;;;;;;47.83;34.17;;;10.00;99.90;;;;;;5043314;28;20045;-93
2022/03/23 08:00:00;;;;;;;44.58;32.60;;;10.20;99.90;;;;;;5061408;28;20135;-93
2022/03/23 08:02:26;;;;;;;49.78;33.00;;;11.00;99.90;;;;;;5060899;28;20127;-93
2022/03/23 08:04:53;;;;;;;47.78;33.70;;;10.40;99.90;;;;;;5060892;28;20040;-93
2022/03/23 08:07:19;;;;;;;97.28;34.22;;;11.00;99.90;;;;;;5044786;28;20044;-93
2022/03/23 08:09:45;;;;;;;47.95;33.17;;;10.80;99.90;;;;;;5045401;28;20044;-92
2022/03/23 08:12:11;;;;;;;43.00;31.67;;;11.00;99.90;;;;;;5061592;28;20036;-93
2022/03/23 08:14:37;;;;;;;42.72;30.27;;;11.20;99.90;;;;;;5047216;28;20044;-92
2022/03/23 08:17:03;;;;;;;42.78;30.52;;;12.00;99.90;;;;;;5047352;28;20040;-92
2022/03/23 08:19:29;;;;;;;41.22;29.17;;;11.10;99.90;;;;;;5080923;28;20051;-93
2022/03/23 08:21:55;;;;;;;43.63;29.95;;;11.80;99.90;;;;;;5063571;28;20052;-92
2022/03/23 08:24:21;;;;;;;45.97;28.42;;;11.40;99.90;;;;;;5046389;28;20051;-92
2022/03/23 08:26:48;;;;;;;34.25;26.98;;;10.80;99.90;;;;;;5063978;28;20648;-93
2022/03/23 08:29:13;;;;;;;38.22;29.23;;;11.70;99.90;;;;;;5062922;28;20083;-89
2022/03/23 08:31:40;;;;;;;36.17;27.10;;;12.00;99.90;;;;;;5046049;28;20048;-91
2022/03/23 08:34:06;;;;;;;36.17;26.85;;;12.00;99.90;;;;;;5047098;28;20040;-91
2022/03/23 08:36:32;;;;;;;35.95;25.75;;;10.70;99.90;;;;;;5064048;28;20094;-92
2022/03/23 08:38:58;;;;;;;33.28;24.73;;;12.20;99.90;;;;;;5079141;28;20112;-92
2022/03/23 08:41:24;;;;;;;32.70;25.27;;;12.60;99.90;;;;;;5045770;28;20079;-93
2022/03/23 08:43:50;;;;;;;34.78;25.10;;;12.40;99.90;;;;;;5080185;28;20372;-93
2022/03/23 08:46:17;;;;;;;37.60;26.13;;;11.50;99.90;;;;;;5063581;28;20059;-94
2022/03/23 08:48:42;;;;;;;33.38;26.33;;;11.70;99.90;;;;;;5046526;28;20118;-93
2022/03/23 08:51:08;;;;;;;32.97;25.58;;;13.10;99.90;;;;;;5046622;28;20062;-93
2022/03/23 08:53:34;;;;;;;35.92;24.35;;;13.10;99.90;;;;;;5063200;28;20048;-92
2022/03/23 08:56:00;;;;;;;29.67;24.65;;;13.10;99.90;;;;;;5063581;28;20403;-92
2022/03/23 08:58:26;;;;;;;33.38;25.58;;;13.30;99.90;;;;;;5046482;28;20084;-92
2022/03/23 09:00:55;;;;;;;32.58;24.58;;;13.40;99.90;;;;;;5063347;28;20095;-92
2022/03/23 09:03:20;;;;;;;37.20;24.15;;;13.80;99.90;;;;;;5045305;28;20043;-89
2022/03/23 09:05:46;;;;;;;28.70;23.42;;;13.70;99.90;;;;;;5080376;28;20101;-91
2022/03/23 09:08:12;;;;;;;29.77;21.58;;;13.90;99.90;;;;;;5078161;28;20105;-92
2022/03/23 09:10:38;;;;;;;31.15;22.15;;;14.60;99.90;;;;;;5062622;28;20055;-92
2022/03/23 09:13:04;;;;;;;28.77;20.52;;;14.50;99.90;;;;;;5062647;28;20079;-91
2022/03/23 09:15:30;;;;;;;29.23;22.17;;;14.10;99.90;;;;;;5044566;28;20056;-91
2022/03/23 09:18:03;;;;;;;26.02;20.67;;;14.30;99.90;;;;;;5060963;28;20483;-90
2022/03/23 09:20:29;;;;;;;24.58;19.13;;;15.80;99.90;;;;;;5061895;28;20475;-90
2022/03/23 09:22:56;;;;;;;30.75;21.75;;;14.40;99.90;;;;;;5061869;28;20036;-91
2022/03/23 09:25:22;;;;;;;24.85;20.13;;;14.60;99.90;;;;;;5045636;28;20117;-90
2022/03/23 09:27:50;;;;;;;27.77;19.98;;;14.70;99.90;;;;;;5096253;28;20138;-90
2022/03/23 09:30:17;;;;;;;26.15;18.83;;;14.70;99.90;;;;;;5078267;28;20087;-90
2022/03/23 09:32:44;;;;;;;27.75;20.38;;;14.80;97.70;;;;;;5077681;28;20043;-91
2022/03/23 09:35:10;;;;;;;23.50;18.27;;;14.80;99.10;;;;;;5078010;28;20121;-91
2022/03/23 09:37:48;;;;;;;22.15;16.67;;;15.00;99.50;;;;;;5060967;28;20052;-90
2022/03/23 09:40:32;;;;;;;20.70;17.48;;;15.20;93.80;;;;;;5061285;28;20043;-92
2022/03/23 09:42:59;;;;;;;23.88;16.48;;;15.60;95.20;;;;;;5045311;28;20040;-92
2022/03/23 09:47:54;;;;;;;20.75;16.20;;;15.60;95.10;;;;;;5061558;28;20051;-89
2022/03/23 09:50:19;;;;;;;19.85;16.65;;;15.60;95.00;;;;;;5060365;28;20062;-91
2022/03/23 09:52:45;;;;;;;24.95;17.88;;;15.70;94.40;;;;;;5077155;28;20044;-93
2022/03/23 09:55:11;;;;;;;19.17;17.10;;;16.10;93.60;;;;;;5028230;28;20082;-92
2022/03/23 09:57:37;;;;;;;18.73;15.23;;;15.90;92.30;;;;;;5061085;28;20150;-91
2022/03/23 10:00:08;;;;;;;18.52;15.55;;;16.00;87.50;;;;;;5060702;28;20048;-91
2022/03/23 10:02:40;;;;;;;21.60;16.27;;;16.00;86.80;;;;;;5075811;28;20052;-91
2022/03/23 10:05:55;;;;;;;22.80;16.08;;;16.40;83.90;;;;;;5076356;28;20055;-92
2022/03/23 10:08:46;;;;;;;19.30;16.27;;;16.30;82.40;;;;;;5077625;28;20051;-92
2022/03/23 10:11:18;;;;;;;26.42;16.38;;;16.40;83.50;;;;;;5046566;28;20299;-92
2022/03/23 10:14:29;;;;;;;20.40;16.55;;;16.60;86.70;;;;;;5059627;28;20120;-92
2022/03/23 10:17:26;;;;;;;20.23;16.90;;;16.70;83.10;;;;;;5055245;28;20059;-91
2022/03/23 10:19:55;;;;;;;19.45;16.70;;;16.70;80.10;;;;;;5060548;28;20109;-92
2022/03/23 10:22:26;;;;;;;19.60;15.88;;;16.90;83.00;;;;;;5076941;28;20051;-93
2022/03/23 10:24:52;;;;;;;20.02;15.05;;;16.90;82.00;;;;;;5060982;28;20044;-91
2022/03/23 10:27:17;;;;;;;16.48;14.30;;;17.10;82.50;;;;;;5044303;28;20044;-89
2022/03/23 10:29:46;;;;;;;19.45;15.32;;;17.20;82.80;;;;;;5060217;28;20050;-90
2022/03/23 10:32:13;;;;;;;19.13;14.50;;;17.20;75.00;;;;;;5076812;28;20055;-91
2022/03/23 10:34:53;;;;;;;19.58;15.35;;;17.40;78.00;;;;;;5043995;28;20048;-91
2022/03/23 10:37:26;;;;;;;18.38;15.18;;;17.40;72.50;;;;;;5076898;28;20044;-91
2022/03/23 10:39:57;;;;;;;20.40;15.43;;;17.50;76.00;;;;;;5077039;28;20048;-92
2022/03/23 10:42:30;;;;;;;23.17;16.02;;;17.50;76.80;;;;;;5076400;28;20044;-90
2022/03/23 10:45:08;;;;;;;20.35;16.63;;;17.60;72.90;;;;;;5076688;28;20052;-92
2022/03/23 10:47:35;;;;;;;20.83;15.38;;;17.90;76.00;;;;;;5059941;28;20048;-92
2022/03/23 10:50:15;;;;;;;22.23;15.30;;;17.80;73.90;;;;;;5061167;28;20093;-91
2022/03/23 10:53:01;;;;;;;16.67;14.55;;;17.90;74.40;;;;;;5076769;28;20044;-90
2022/03/23 10:55:30;;;;;;;19.10;16.73;;;17.70;70.60;;;;;;5051344;28;20142;-92
2022/03/23 10:58:15;;;;;;;17.63;14.20;;;17.90;73.40;;;;;;5060982;28;20075;-91
2022/03/23 11:00:42;;;;;;;19.77;14.40;;;18.00;73.90;;;;;;5059960;28;20048;-92
2022/03/23 11:03:09;;;;;;;20.30;14.60;;;18.10;73.80;;;;;;5059960;28;20051;-92
2022/03/23 11:05:45;;;;;;;17.73;14.55;;;18.10;73.30;;;;;;5027283;28;20056;-92
2022/03/23 11:08:19;;;;;;;20.38;15.15;;;18.30;71.40;;;;;;5061035;28;20479;-92
2022/03/23 11:16:46;;;;;;;17.80;13.38;;;18.50;73.70;;;;;;5076696;28;20395;-91
2022/03/23 11:19:12;;;;;;;17.00;12.50;;;18.60;71.70;;;;;;5076114;28;20081;-91
2022/03/23 11:21:57;;;;;;;19.25;12.63;;;18.50;68.60;;;;;;5059431;28;20039;-91
2022/03/23 11:24:23;;;;;;;19.40;12.32;;;18.60;65.80;;;;;;5076056;28;20105;-91
2022/03/23 11:26:52;;;;;;;16.73;13.82;;;18.50;69.50;;;;;;5081146;28;20080;-92
2022/03/23 11:29:19;;;;;;;21.20;13.77;;;18.70;71.50;;;;;;5063109;28;20040;-90
2022/03/23 11:31:46;;;;;;;18.05;13.95;;;18.80;66.70;;;;;;5062732;28;20098;-91
2022/03/23 11:34:13;;;;;;;17.58;13.55;;;18.90;66.70;;;;;;5062211;28;20044;-92
2022/03/23 11:36:41;;;;;;;19.50;13.65;;;19.00;67.80;;;;;;5079954;28;20121;-92
2022/03/23 11:39:07;;;;;;;21.27;13.40;;;19.10;68.00;;;;;;5064811;28;20561;-95
2022/03/23 11:41:34;;;;;;;21.70;13.57;;;19.30;70.20;;;;;;5048097;28;20082;-95
2022/03/23 11:43:59;;;;;;;16.45;13.05;;;19.30;68.50;;;;;;5063950;28;20048;-94
2022/03/23 11:46:27;;;;;;;18.30;12.98;;;19.50;69.00;;;;;;5064141;28;20139;-94
2022/03/23 11:49:04;;;;;;;20.08;13.60;;;19.60;68.30;;;;;;5063339;28;20044;-92
2022/03/23 11:52:05;;;;;;;16.92;13.07;;;19.60;63.10;;;;;;5080256;28;20062;-92
2022/03/23 11:57:54;;;;;;;15.45;11.93;;;19.80;64.40;;;;;;5080192;28;20003;-91
2022/03/23 12:00:26;;;;;;;18.50;11.63;;;20.00;65.00;;;;;;5063189;28;20055;-93
2022/03/23 12:02:53;;;;;;;21.65;12.45;;;20.00;67.50;;;;;;5057507;28;20044;-93
2022/03/23 12:05:29;;;;;;;19.50;10.88;;;20.00;66.90;;;;;;5063256;28;20135;-91
2022/03/23 12:07:55;;;;;;;16.73;9.40;;;20.30;65.60;;;;;;5063250;28;20044;-92
2022/03/23 12:10:23;;;;;;;19.92;10.95;;;20.40;67.00;;;;;;5046634;28;20039;-91
2022/03/23 12:12:49;;;;;;;15.23;9.57;;;20.50;65.50;;;;;;5079919;28;20069;-89
2022/03/23 12:15:34;;;;;;;23.67;9.93;;;20.60;64.20;;;;;;5084238;28;20109;-92
2022/03/23 12:18:00;;;;;;;18.48;10.25;;;20.60;59.70;;;;;;5051157;28;20052;-92
2022/03/23 12:20:31;;;;;;;15.02;10.38;;;20.50;63.00;;;;;;5030184;28;20139;-92
2022/03/23 12:23:15;;;;;;;16.42;10.45;;;20.70;62.60;;;;;;5063265;28;20048;-91
2022/03/23 12:26:10;;;;;;;16.55;9.60;;;20.80;61.10;;;;;;5080732;28;20488;-92
2022/03/23 12:28:54;;;;;;;19.85;9.75;;;21.00;60.10;;;;;;5063076;28;20048;-91
2022/03/23 12:31:21;;;;;;;19.27;9.07;;;21.30;60.20;;;;;;5062142;28;20102;-91
2022/03/23 12:34:11;;;;;;;15.98;7.78;;;21.20;58.90;;;;;;5048782;28;20059;-94
2022/03/23 12:37:06;;;;;;;16.23;8.70;;;21.50;59.90;;;;;;5063193;28;20517;-91
2022/03/23 12:39:35;;;;;;;17.92;8.45;;;21.70;58.50;;;;;;5062968;28;20046;-93
2022/03/23 12:42:16;;;;;;;16.83;7.28;;;21.80;59.40;;;;;;5063001;28;20051;-92
2022/03/23 12:44:41;;;;;;;16.83;7.45;;;22.10;59.20;;;;;;5061824;28;20040;-91
2022/03/23 12:47:11;;;;;;;16.30;7.28;;;22.10;58.80;;;;;;5062097;28;20493;-93
2022/03/23 12:58:05;;;;;;;17.40;6.10;;;22.30;58.50;;;;;;5077842;28;20055;-91
2022/03/23 13:00:37;;;;;;;18.90;6.47;;;22.10;57.40;;;;;;5045612;28;20048;-92
2022/03/23 13:03:06;;;;;;;17.10;7.25;;;22.60;58.40;;;;;;5078258;28;20044;-92
2022/03/23 13:05:33;;;;;;;14.10;6.30;;;22.40;54.30;;;;;;5062241;28;20134;-90
2022/03/23 13:08:00;;;;;;;14.70;7.25;;;22.40;56.60;;;;;;5079433;28;20051;-93
2022/03/23 13:10:25;;;;;;;16.70;5.88;;;22.40;58.40;;;;;;5061274;28;20090;-93
2022/03/23 13:13:04;;;;;;;21.85;6.18;;;22.20;57.10;;;;;;5063239;28;20117;-90